• Join FlightAware (Why Join?)
  • Login
  • US Flag 
 
05:07AM EST


 

Airport Tracker/Info


-or-


 

Live Flight TrackerFlight Track Log ✈ N441R ✈ 29-Jul-2013 ✈ KBLF - KBUF

Flight Track Log - Related Links

Times and Time Zones

All times are in EDT time to prevent confusion due to time zone crossing. See the N441R flight status page for this flight to view local times or setup timezone preferences in your user account.

Time Position Orientation Groundspeed Altitude Reporting Facility
EDT Latitude Longitude Course Direction KTS MPH feet Rate Location/Type
07:59AM 37.3253 -81.1617 32° Northeast 164 189 5,200  Level Indianapolis Center
08:00AM 37.3661 -81.1297 32° Northeast 178 205 7,000 1,980 Climbing Indianapolis Center
08:01AM 37.4206 -81.0789 37° Northeast 207 238 9,300 2,040 Climbing Indianapolis Center
08:02AM 37.4656 -81.0347 38° Northeast 212 244 11,300 1,920 Climbing Indianapolis Center
08:03AM 37.5175 -81.0192 13° North 195 224 13,300 1,920 Climbing Indianapolis Center
08:04AM 37.5714 -80.9997 16° North 204 235 15,300 2,040 Climbing Indianapolis Center
08:05AM 37.6344 -80.9756 17° North 201 231 17,500 1,860 Climbing Indianapolis Center
08:07AM 37.6847 -80.9544 18° North 197 227 19,200 1,680 Climbing Indianapolis Center
08:08AM 37.7394 -80.9350 16° North 204 235 21,000 1,620 Climbing Indianapolis Center
08:09AM 37.7961 -80.9114 18° North 215 247 22,600 1,500 Climbing Indianapolis Center
08:10AM 37.8603 -80.8881 16° North 225 259 24,100 1,320 Climbing Indianapolis Center
08:11AM 37.9214 -80.8631 18° North 230 265 25,400 1,200 Climbing Indianapolis Center
08:12AM 37.9836 -80.8386 17° North 233 268 26,600 720 Climbing Indianapolis Center
08:13AM 38.0650 -80.8069 17° North 252 290 27,000 180 Climbing Indianapolis Center
08:14AM 38.1419 -80.7761 17° North 282 325 27,000  Level Indianapolis Center
08:15AM 38.2214 -80.7428 18° North 296 341 27,000  Level Indianapolis Center
08:16AM 38.3014 -80.7119 17° North 300 345 27,000  Level Indianapolis Center
08:17AM 38.3811 -80.6797 18° North 300 345 27,000  Level Indianapolis Center
08:18AM 38.4617 -80.6483 17° North 303 349 27,000  Level Indianapolis Center
08:19AM 38.5419 -80.6167 17° North 303 349 27,000  Level Indianapolis Center
08:20AM 38.6381 -80.5767 18° North 303 349 27,000  Level Indianapolis Center
08:21AM 38.7186 -80.5444 17° North 305 351 27,000  Level Indianapolis Center
08:22AM 38.8003 -80.5119 17° North 307 353 27,000  Level Indianapolis Center
08:23AM 38.8814 -80.4797 17° North 306 352 27,000  Level Indianapolis Center
08:24AM 38.9622 -80.4456 18° North 305 351 27,000  Level Indianapolis Center
08:25AM 39.0422 -80.4131 18° North 303 349 27,000  Level Indianapolis Center
08:26AM 39.1222 -80.3806 17° North 302 348 27,000  Level Indianapolis Center
08:27AM 39.2181 -80.3406 18° North 302 348 27,000  Level Indianapolis Center
08:28AM 39.2981 -80.3097 17° North 300 345 27,000  Level Indianapolis Center
08:30AM 39.4267 -80.2578 17° North 298 343 27,000  Level Cleveland Center
08:31AM 39.5081 -80.2253 17° North 298 343 27,000  Level Cleveland Center
08:32AM 39.5869 -80.1953 16° North 298 343 27,000  Level Cleveland Center
08:33AM 39.6683 -80.1597 19° North 298 343 27,000  Level Cleveland Center
08:34AM 39.7472 -80.1267 18° North 298 343 27,000  Level Cleveland Center
08:35AM 39.8264 -80.0939 18° North 298 343 27,000  Level Cleveland Center
08:36AM 39.9056 -80.0608 18° North 298 343 27,000  Level Cleveland Center
08:37AM 39.9844 -80.0275 18° North 298 343 27,000  Level Cleveland Center
08:38AM 40.0572 -79.9972 18° North 298 343 27,000  Level Cleveland Center
08:39AM 40.1364 -79.9639 18° North 298 343 27,000  Level Cleveland Center
08:40AM 40.2153 -79.9306 18° North 298 343 27,000  Level Cleveland Center
08:41AM 40.2944 -79.8972 18° North 298 343 27,000  Level Cleveland Center
08:42AM 40.3756 -79.8636 18° North 298 343 27,000  Level Cleveland Center
08:43AM 40.4544 -79.8300 18° North 298 343 27,000  Level Cleveland Center
08:44AM 40.5356 -79.7936 19° North 298 343 27,000  Level Cleveland Center
08:45AM 40.6144 -79.7625 17° North 298 343 27,000  Level Cleveland Center
08:46AM 40.6936 -79.7286 18° North 298 343 27,000  Level Cleveland Center
08:47AM 40.7744 -79.6919 19° North 303 349 27,000  Level Cleveland Center
08:48AM 40.8536 -79.6581 18° North 298 343 27,000  Level Cleveland Center
08:49AM 40.9325 -79.6267 17° North 298 343 27,000  Level Cleveland Center
08:50AM 41.0114 -79.5897 19° North 298 343 27,000  Level Cleveland Center
08:51AM 41.0925 -79.5556 18° North 298 343 27,000 -120 Level Cleveland Center
08:52AM 41.1733 -79.5211 18° North 298 343 26,800 -720 Descending Cleveland Center
08:53AM 41.2564 -79.4839 19° North 303 349 25,600 -1,200 Descending Cleveland Center
08:54AM 41.3436 -79.4464 18° North 309 356 24,500 -840 Descending Cleveland Center
08:55AM 41.4350 -79.4061 18° North 309 356 24,000 -300 Descending Cleveland Center
08:56AM 41.5158 -79.3714 18° North 304 350 24,000 -300 Level Cleveland Center
08:57AM 41.5989 -79.3364 17° North 304 350 23,400 -900 Descending Cleveland Center
08:58AM 41.6819 -79.2986 19° North 304 350 22,200 -1,320 Descending Cleveland Center
08:59AM 41.7669 -79.2608 18° North 309 356 20,800 -1,380 Descending Cleveland Center
09:00AM 41.8519 -79.2228 18° North 309 356 19,500 -1,440 Descending Cleveland Center
09:01AM 41.9328 -79.1875 18° North 314 361 18,000 -1,440 Descending Cleveland Center
09:02AM 42.0156 -79.1494 19° North 309 356 16,700 -1,380 Descending Cleveland Center
09:03AM 42.0964 -79.1142 18° North 304 350 15,300 -1,380 Descending Cleveland Center
09:04AM 42.1772 -79.0758 19° North 298 343 14,000 -1,320 Descending Cleveland Center
09:05AM 42.2539 -79.0403 19° North 298 343 12,700 -1,260 Descending Cleveland Center
09:06AM 42.3306 -79.0075 18° North 298 343 11,500 -900 Descending Cleveland Center
09:07AM 42.4053 -78.9747 18° North 287 330 11,000 -720 Descending Cleveland Center
09:08AM 42.4797 -78.9392 19° North 281 323 10,100 -1,140 Descending Cleveland Center
09:09AM 42.5503 -78.9119 16° North 275 316 8,800 -1,260 Descending Cleveland Center
09:10AM 42.6144 -78.8847 17° North 268 308 7,600 -1,260 Descending Cleveland Center
09:11AM 42.6806 -78.8519 20° North 262 302 6,300 -1,380 Descending Cleveland Center
09:12AM 42.7511 -78.8217 17° North 244 281 4,900 -1,200 Descending Cleveland Center
09:13AM 42.8003 -78.7694 38° Northeast 225 259 3,900 -900 Descending Cleveland Center
09:15AM 42.8833 -78.6833 37° Northeast 151 174 2,200 -900 Descending Buffalo TRACON
09:16AM 42.9167 -78.7000 340° North 102 117 1,100 -960 Descending Buffalo TRACON
09:18AM 42.9333 -78.7167 26° Northeast  Level FlightAware Approximate
09:25AM 42.9404 -78.7306 26° Northeast  Level Estimated